Time;durP1;ratioP1;P1;durP2;ratioP2;P2;SDS_P1;SDS_P2;PMS_P1;PMS_P2;Temp;Humidity;BMP_temperature;BMP_pressure;BME280_temperature;BME280_humidity;BME280_pressure;Samples;Min_cycle;Max_cycle;Signal;HPM_P1;HPM_P2
2023/12/13 00:02:17;;;;;;;8.88;4.10;;;;;;;12.49;75.22;99639.91;5051077;28;20045;-46
2023/12/13 00:04:43;;;;;;;11.10;4.57;;;;;;;12.61;75.02;99634.50;5050423;28;20037;-46
2023/12/13 00:07:08;;;;;;;11.52;4.28;;;;;;;12.56;74.73;99631.09;5051004;28;20039;-47
2023/12/13 00:09:33;;;;;;;12.02;4.50;;;;;;;12.58;74.94;99624.94;5050678;28;20102;-44
2023/12/13 00:11:59;;;;;;;12.05;4.68;;;;;;;12.49;74.89;99621.59;5051041;28;20450;-44
2023/12/13 00:14:24;;;;;;;8.48;4.70;;;;;;;12.50;74.55;99624.16;5050537;28;20041;-46
2023/12/13 00:16:51;;;;;;;16.17;5.10;;;;;;;12.44;74.30;99636.50;5050721;28;20029;-44
2023/12/13 00:19:16;;;;;;;11.38;5.15;;;;;;;12.42;74.53;99626.06;5050896;28;20057;-46
2023/12/13 00:21:41;;;;;;;11.60;5.75;;;;;;;12.46;74.33;99627.72;5049810;28;20153;-46
2023/12/13 00:24:08;;;;;;;10.75;5.47;;;;;;;12.36;74.47;99630.50;5050586;28;20262;-46
2023/12/13 00:26:34;;;;;;;15.20;6.45;;;;;;;12.49;74.75;99629.44;5050351;28;20048;-42
2023/12/13 00:28:59;;;;;;;15.02;6.65;;;;;;;12.50;74.83;99636.41;5050916;28;20502;-46
2023/12/13 00:31:24;;;;;;;14.38;7.47;;;;;;;12.51;75.19;99625.91;5050233;28;20087;-50
2023/12/13 00:33:50;;;;;;;22.58;7.82;;;;;;;12.63;74.92;99630.09;5050408;28;20069;-45
2023/12/13 00:36:15;;;;;;;16.75;8.10;;;;;;;12.59;74.91;99634.50;5048563;28;20364;-50
2023/12/13 00:38:40;;;;;;;17.50;8.40;;;;;;;12.62;75.04;99635.38;5050132;28;20041;-45
2023/12/13 00:41:06;;;;;;;15.95;8.80;;;;;;;12.68;74.80;99630.91;5050159;28;20033;-45
2023/12/13 00:43:32;;;;;;;15.50;8.95;;;;;;;12.74;74.45;99635.19;5050179;28;20186;-50
2023/12/13 00:45:57;;;;;;;19.08;9.73;;;;;;;12.67;74.98;99638.78;5049048;28;20483;-46
2023/12/13 00:48:22;;;;;;;20.60;10.20;;;;;;;12.57;75.61;99640.63;5049849;28;20040;-45
2023/12/13 00:50:48;;;;;;;19.83;10.07;;;;;;;12.67;75.04;99628.31;5049974;28;20107;-46
2023/12/13 00:53:13;;;;;;;20.33;10.07;;;;;;;12.60;74.81;99638.00;5049827;28;20032;-44
2023/12/13 00:55:39;;;;;;;18.20;9.70;;;;;;;12.56;75.52;99631.09;5049773;28;20060;-46
2023/12/13 00:58:04;;;;;;;19.42;10.88;;;;;;;12.72;75.01;99632.59;5049996;28;20040;-45
2023/12/13 01:00:30;;;;;;;22.45;10.80;;;;;;;12.68;75.05;99635.28;5049331;28;20104;-50
2023/12/13 01:02:55;;;;;;;20.27;11.00;;;;;;;12.24;76.66;99634.16;5048565;28;20044;-45
2023/12/13 01:05:21;;;;;;;22.75;10.85;;;;;;;12.65;75.03;99627.47;5048372;28;20071;-44
2023/12/13 01:07:46;;;;;;;19.23;10.38;;;;;;;12.66;74.70;99626.59;5049412;28;20108;-51
2023/12/13 01:10:11;;;;;;;23.90;10.85;;;;;;;12.58;74.95;99624.94;5050081;28;20063;-46
2023/12/13 01:12:39;;;;;;;19.05;9.55;;;;;;;12.69;75.22;99629.13;5049488;28;20045;-45
2023/12/13 01:15:05;;;;;;;18.73;9.80;;;;;;;12.67;75.28;99629.19;5050190;28;20037;-45
2023/12/13 01:17:32;;;;;;;17.80;9.20;;;;;;;12.63;75.13;99629.22;5049676;28;20090;-47
2023/12/13 01:19:58;;;;;;;17.25;9.20;;;;;;;12.64;75.65;99631.81;5050299;28;20575;-43
2023/12/13 01:22:23;;;;;;;19.83;9.45;;;;;;;12.51;75.91;99625.91;5049467;28;20116;-44
2023/12/13 01:24:48;;;;;;;20.58;9.23;;;;;;;12.62;75.49;99627.53;5049535;28;20063;-48
2023/12/13 01:27:13;;;;;;;15.18;8.82;;;;;;;12.70;75.37;99623.88;5050101;28;20033;-50
2023/12/13 01:29:39;;;;;;;22.15;8.55;;;;;;;12.75;74.68;99621.19;5049871;28;20442;-49
2023/12/13 01:32:04;;;;;;;15.18;7.90;;;;;;;12.70;74.79;99626.50;5049246;28;20546;-46
2023/12/13 01:34:30;;;;;;;13.77;7.13;;;;;;;12.81;74.82;99631.56;5048685;28;20073;-47
2023/12/13 01:36:55;;;;;;;15.20;7.53;;;;;;;12.58;75.37;99637.16;5049567;28;20051;-49
2023/12/13 01:39:21;;;;;;;16.20;7.22;;;;;;;12.55;75.48;99626.75;5049779;28;20502;-45
2023/12/13 01:41:46;;;;;;;13.88;7.03;;;;;;;12.79;74.78;99630.75;5048848;28;20614;-46
2023/12/13 01:44:12;;;;;;;13.60;6.90;;;;;;;12.80;74.51;99635.09;5049594;28;20044;-47
2023/12/13 01:46:38;;;;;;;14.43;6.10;;;;;;;12.71;75.17;99632.59;5048978;28;20037;-46
2023/12/13 01:49:06;;;;;;;14.68;6.72;;;;;;;12.62;74.83;99633.63;5049757;28;20052;-44
2023/12/13 01:51:35;;;;;;;14.20;6.15;;;;;;;12.70;74.72;99630.88;5049087;28;20033;-51
2023/12/13 01:54:08;;;;;;;14.18;6.20;;;;;;;12.80;74.42;99635.97;5049708;28;20124;-45
2023/12/13 01:56:33;;;;;;;10.82;6.00;;;;;;;12.58;75.12;99638.00;5048922;28;20398;-46
2023/12/13 01:58:59;;;;;;;14.55;6.28;;;;;;;12.53;75.26;99634.59;5049182;28;20045;-45
2023/12/13 02:01:24;;;;;;;13.07;5.53;;;;;;;12.48;75.75;99635.56;5048864;28;20041;-50
2023/12/13 02:03:50;;;;;;;14.05;5.70;;;;;;;12.68;74.91;99630.03;5049209;28;20037;-45
2023/12/13 02:06:15;;;;;;;10.90;6.03;;;;;;;12.70;75.12;99629.13;5049530;28;20526;-45
2023/12/13 02:08:41;;;;;;;14.57;5.95;;;;;;;12.56;75.22;99629.31;5048924;28;20065;-45
2023/12/13 02:11:06;;;;;;;10.90;5.88;;;;;;;12.53;75.71;99638.97;5048858;28;20041;-44
2023/12/13 02:13:32;;;;;;;11.52;6.00;;;;;;;12.81;74.78;99631.56;5048869;28;20395;-44
2023/12/13 02:15:58;;;;;;;11.55;5.95;;;;;;;12.55;75.31;99637.19;5049521;28;20102;-47
2023/12/13 02:18:23;;;;;;;10.35;6.22;;;;;;;12.67;75.04;99634.41;5048488;28;20029;-48
2023/12/13 02:20:51;;;;;;;16.35;6.32;;;;;;;12.37;76.07;99633.09;5049425;28;20068;-45
2023/12/13 02:23:16;;;;;;;16.83;6.35;;;;;;;12.65;74.97;99624.84;5048720;28;20088;-44
2023/12/13 02:25:52;;;;;;;12.43;6.32;;;;;;;12.73;74.18;99629.09;5048617;28;20511;-46
2023/12/13 02:28:18;;;;;;;10.30;6.35;;;;;;;12.74;74.32;99633.44;5049211;28;20053;-48
2023/12/13 02:30:46;;;;;;;15.45;6.50;;;;;;;12.70;74.00;99629.13;5048412;28;20439;-44
2023/12/13 02:33:11;;;;;;;12.32;7.13;;;;;;;12.50;74.86;99624.16;5048947;28;20040;-48
2023/12/13 02:35:36;;;;;;;11.73;7.43;;;;;;;12.59;74.65;99626.66;5048731;28;20462;-44
2023/12/13 02:38:02;;;;;;;15.38;8.07;;;;;;;12.64;73.91;99629.22;5049068;28;20079;-48
2023/12/13 02:40:27;;;;;;;14.30;8.25;;;;;;;12.51;74.52;99620.69;5049035;28;20033;-45
2023/12/13 02:42:52;;;;;;;16.65;8.73;;;;;;;12.28;75.98;99625.38;5049230;28;20040;-43
2023/12/13 02:45:19;;;;;;;16.08;8.63;;;;;;;12.65;74.81;99620.47;5050807;28;20488;-48
2023/12/13 02:47:46;;;;;;;19.17;8.77;;;;;;;12.66;74.60;99626.59;5052212;28;20033;-43
2023/12/13 02:50:12;;;;;;;15.13;8.70;;;;;;;12.65;74.63;99619.63;5052879;28;20033;-43
2023/12/13 02:52:41;;;;;;;16.63;8.32;;;;;;;12.64;74.02;99613.53;5051961;28;20150;-44
2023/12/13 02:55:10;;;;;;;16.23;8.68;;;;;;;12.54;73.99;99618.03;5053904;28;20062;-46
2023/12/13 02:57:36;;;;;;;14.35;8.52;;;;;;;12.45;73.80;99623.38;5051906;28;20381;-45
2023/12/13 03:00:03;;;;;;;16.73;8.07;;;;;;;12.52;73.47;99622.41;5052219;28;20166;-44
2023/12/13 03:02:28;;;;;;;18.20;9.02;;;;;;;12.33;74.04;99625.28;5051551;28;20115;-44
2023/12/13 03:04:54;;;;;;;16.67;7.85;;;;;;;12.38;73.54;99626.97;5052144;28;20068;-45
2023/12/13 03:07:21;;;;;;;14.38;8.23;;;;;;;12.28;73.70;99627.97;5051986;28;20157;-45
2023/12/13 03:09:47;;;;;;;14.55;8.10;;;;;;;12.20;73.72;99633.31;5051485;28;20025;-44
2023/12/13 03:12:12;;;;;;;14.65;8.00;;;;;;;12.19;73.48;99626.38;5051851;28;20033;-45
2023/12/13 03:14:37;;;;;;;18.17;8.48;;;;;;;12.18;73.47;99623.78;5051354;28;20491;-46
2023/12/13 03:17:03;;;;;;;16.88;8.65;;;;;;;12.12;73.67;99627.34;5051751;28;20041;-46
2023/12/13 03:19:28;;;;;;;15.35;8.73;;;;;;;12.05;73.76;99619.59;5051582;28;20103;-47
2023/12/13 03:21:53;;;;;;;16.13;8.55;;;;;;;12.04;74.03;99617.84;5051675;28;20048;-47
2023/12/13 03:24:18;;;;;;;17.17;8.73;;;;;;;11.97;74.23;99617.06;5052417;28;20037;-44
2023/12/13 03:26:44;;;;;;;16.17;8.93;;;;;;;12.00;73.67;99611.81;5051324;28;20450;-47
2023/12/13 03:29:09;;;;;;;16.52;8.60;;;;;;;11.99;74.02;99617.91;5050636;28;20118;-44
2023/12/13 03:31:34;;;;;;;18.40;8.93;;;;;;;12.00;74.09;99614.44;5051527;28;20163;-44
2023/12/13 03:34:00;;;;;;;20.30;8.90;;;;;;;11.96;74.13;99620.53;5051989;28;20040;-46
2023/12/13 03:36:26;;;;;;;20.33;9.88;;;;;;;12.06;74.38;99618.69;5052717;28;20036;-44
2023/12/13 03:38:52;;;;;;;20.73;10.05;;;;;;;12.09;74.21;99608.19;5052778;28;20415;-48
2023/12/13 03:41:17;;;;;;;20.17;11.18;;;;;;;12.09;74.49;99613.44;5052550;28;20087;-43
2023/12/13 03:43:43;;;;;;;22.25;10.27;;;;;;;12.18;74.37;99602.88;5051371;28;20111;-45
2023/12/13 03:46:08;;;;;;;21.42;11.60;;;;;;;12.12;74.47;99605.56;5051801;28;20068;-45
2023/12/13 03:48:33;;;;;;;23.42;11.98;;;;;;;12.24;74.44;99607.16;5050833;28;20120;-45
2023/12/13 03:50:58;;;;;;;27.02;12.27;;;;;;;12.22;74.33;99601.94;5050876;28;20045;-49
2023/12/13 03:53:24;;;;;;;24.90;12.32;;;;;;;12.28;74.51;99609.69;5050747;28;20462;-44
2023/12/13 03:55:49;;;;;;;21.58;12.57;;;;;;;12.29;74.64;99608.81;5050737;28;20041;-45
2023/12/13 03:58:15;;;;;;;22.02;12.57;;;;;;;12.37;74.25;99603.47;5050833;28;20055;-45
2023/12/13 04:00:40;;;;;;;22.05;12.15;;;;;;;12.45;74.13;99610.31;5050784;28;20041;-44
2023/12/13 04:03:06;;;;;;;23.65;12.13;;;;;;;12.43;74.21;99601.66;5051270;28;20082;-44
2023/12/13 04:05:31;;;;;;;20.98;12.27;;;;;;;12.41;74.03;99599.94;5050591;28;20041;-49
2023/12/13 04:07:57;;;;;;;23.27;12.45;;;;;;;12.36;73.97;99596.53;5051437;28;20033;-44
2023/12/13 04:10:22;;;;;;;25.08;12.65;;;;;;;12.33;74.08;99601.78;5049570;28;20037;-50
2023/12/13 04:12:47;;;;;;;23.98;12.45;;;;;;;12.29;73.64;99610.56;5051048;28;20029;-44
2023/12/13 04:15:12;;;;;;;23.70;13.27;;;;;;;12.27;74.10;99604.47;5050694;28;20033;-51
2023/12/13 04:17:38;;;;;;;20.55;12.27;;;;;;;12.25;74.58;99601.03;5050396;28;20132;-48
2023/12/13 04:20:04;;;;;;;25.90;13.52;;;;;;;12.22;74.48;99599.31;5049667;28;20040;-47
2023/12/13 04:22:29;;;;;;;27.00;13.15;;;;;;;12.36;74.36;99597.38;5050477;28;20672;-43
2023/12/13 04:24:54;;;;;;;23.17;13.05;;;;;;;12.44;74.40;99603.34;5051242;28;20059;-45
2023/12/13 04:27:20;;;;;;;25.52;13.23;;;;;;;12.47;74.12;99600.72;5050438;28;20063;-44
2023/12/13 04:29:45;;;;;;;21.98;12.30;;;;;;;12.46;74.24;99598.09;5050302;28;20029;-43
2023/12/13 04:32:10;;;;;;;21.55;12.23;;;;;;;12.46;74.37;99596.34;5050240;28;20053;-46
2023/12/13 04:34:36;;;;;;;22.10;11.43;;;;;;;12.52;74.03;99598.88;5049385;28;20032;-43
2023/12/13 04:37:01;;;;;;;21.83;11.50;;;;;;;12.53;74.20;99595.38;5050589;28;20472;-43
2023/12/13 04:39:26;;;;;;;20.98;11.32;;;;;;;12.52;74.21;99601.50;5050478;28;20033;-47
2023/12/13 04:41:52;;;;;;;19.23;11.00;;;;;;;12.48;74.10;99605.06;5051386;28;20029;-44
2023/12/13 04:44:17;;;;;;;21.30;10.48;;;;;;;12.52;73.93;99601.50;5051089;28;20063;-48
2023/12/13 04:46:43;;;;;;;21.65;10.57;;;;;;;12.55;74.11;99603.22;5050032;28;20037;-45
2023/12/13 04:49:08;;;;;;;18.58;9.65;;;;;;;12.55;74.05;99601.47;5050968;28;20117;-44
2023/12/13 04:51:33;;;;;;;21.25;9.68;;;;;;;12.57;74.05;99604.03;5048572;28;20499;-45
2023/12/13 04:53:59;;;;;;;19.17;9.32;;;;;;;12.57;74.20;99610.13;5051276;28;20127;-43
2023/12/13 04:56:24;;;;;;;16.92;9.13;;;;;;;12.58;74.15;99600.53;5050350;28;20496;-43
2023/12/13 04:58:50;;;;;;;19.95;8.60;;;;;;;12.65;73.80;99601.31;5050950;28;20079;-48
2023/12/13 05:01:15;;;;;;;16.92;8.63;;;;;;;12.65;73.83;99596.09;5050909;28;20040;-49
2023/12/13 05:03:41;;;;;;;17.13;7.82;;;;;;;12.59;73.96;99597.03;5049117;28;20120;-46
2023/12/13 05:06:06;;;;;;;20.65;8.35;;;;;;;12.58;73.91;99597.94;5050991;28;20044;-45
2023/12/13 05:08:33;;;;;;;17.40;8.10;;;;;;;12.62;74.14;99594.41;5049428;28;20040;-44
2023/12/13 05:10:59;;;;;;;18.40;8.13;;;;;;;12.63;73.70;99592.63;5050909;28;20037;-48
2023/12/13 05:13:25;;;;;;;15.52;7.90;;;;;;;12.69;73.78;99595.13;5050961;28;20037;-47
2023/12/13 05:15:50;;;;;;;18.05;7.90;;;;;;;12.70;73.68;99600.34;5050552;28;20056;-47
2023/12/13 05:18:16;;;;;;;16.27;8.52;;;;;;;12.72;73.77;99600.34;5050670;28;20099;-45
2023/12/13 05:20:41;;;;;;;22.77;9.10;;;;;;;12.74;73.77;99602.06;5049977;28;20040;-45
2023/12/13 05:23:06;;;;;;;18.75;8.68;;;;;;;12.71;73.95;99596.00;5050920;28;20046;-50
2023/12/13 05:25:32;;;;;;;20.52;9.43;;;;;;;12.68;74.36;99596.06;5049852;28;20040;-44
2023/12/13 05:27:58;;;;;;;22.42;9.40;;;;;;;12.75;73.74;99584.59;5050178;28;20495;-47
2023/12/13 05:30:23;;;;;;;22.45;9.82;;;;;;;12.80;73.43;99599.34;5049608;28;20147;-48
2023/12/13 05:32:53;;;;;;;21.90;9.70;;;;;;;12.80;73.58;99608.94;5049960;28;20032;-49
2023/12/13 05:35:18;;;;;;;22.48;9.88;;;;;;;12.69;73.68;99596.00;5050330;28;20029;-45
2023/12/13 05:37:44;;;;;;;21.75;10.20;;;;;;;12.60;73.86;99599.66;5049431;28;20039;-46
2023/12/13 05:40:09;;;;;;;19.13;10.70;;;;;;;12.65;73.99;99603.94;5049928;28;20040;-51
2023/12/13 05:42:35;;;;;;;23.67;11.45;;;;;;;12.70;74.03;99597.75;5049603;28;20052;-44
2023/12/13 05:45:00;;;;;;;25.55;11.15;;;;;;;12.72;74.06;99595.97;5050615;28;20029;-45
2023/12/13 05:47:26;;;;;;;21.70;10.98;;;;;;;12.82;73.80;99599.28;5049178;28;20450;-48
2023/12/13 05:49:51;;;;;;;25.15;12.27;;;;;;;12.67;74.38;99594.31;5049702;28;20148;-46
2023/12/13 05:52:18;;;;;;;25.70;11.95;;;;;;;12.69;74.41;99601.22;5048262;28;20128;-45
2023/12/13 05:54:43;;;;;;;24.35;11.60;;;;;;;12.71;74.26;99601.22;5047955;28;20394;-44
2023/12/13 05:57:09;;;;;;;25.33;12.20;;;;;;;12.75;74.23;99598.53;5049918;28;20033;-44
2023/12/13 05:59:34;;;;;;;27.77;12.07;;;;;;;12.80;74.19;99601.97;5049730;28;20037;-45
2023/12/13 06:01:59;;;;;;;24.67;12.07;;;;;;;12.85;74.32;99601.88;5052997;28;20067;-44
2023/12/13 06:04:25;;;;;;;25.23;11.75;;;;;;;12.85;74.30;99604.50;5048993;28;20070;-44
2023/12/13 06:06:50;;;;;;;21.98;10.48;;;;;;;12.94;74.32;99605.19;5049235;28;20033;-43
2023/12/13 06:09:15;;;;;;;25.17;11.55;;;;;;;12.97;73.95;99602.53;5049262;28;20160;-46
2023/12/13 06:11:41;;;;;;;21.92;10.93;;;;;;;12.91;74.12;99605.25;5048881;28;20040;-47
2023/12/13 06:14:06;;;;;;;25.42;10.77;;;;;;;12.96;74.27;99607.78;5049235;28;20119;-45
2023/12/13 06:16:32;;;;;;;19.83;10.68;;;;;;;12.93;74.11;99610.44;5048700;28;20068;-46
2023/12/13 06:18:57;;;;;;;26.77;11.23;;;;;;;12.89;74.44;99606.16;5050241;28;20095;-50
2023/12/13 06:21:22;;;;;;;20.00;10.18;;;;;;;12.96;73.89;99606.03;5052806;28;20594;-46
2023/12/13 06:23:48;;;;;;;24.02;10.32;;;;;;;12.85;74.29;99605.34;5053202;28;20043;-47
2023/12/13 06:26:13;;;;;;;27.52;9.80;;;;;;;12.82;74.02;99604.53;5052795;28;20048;-48
2023/12/13 06:28:38;;;;;;;23.88;10.48;;;;;;;12.78;74.48;99613.31;5052147;28;20052;-44
2023/12/13 06:31:04;;;;;;;20.90;9.73;;;;;;;12.77;74.74;99611.59;5052615;28;20407;-44
2023/12/13 06:33:29;;;;;;;25.00;10.27;;;;;;;12.85;74.53;99612.34;5052428;28;20037;-43
2023/12/13 06:35:54;;;;;;;20.73;10.00;;;;;;;12.92;74.21;99611.34;5052525;28;20049;-44
2023/12/13 06:38:20;;;;;;;23.23;10.88;;;;;;;12.93;74.18;99613.91;5052499;28;20091;-47
2023/12/13 06:40:46;;;;;;;30.20;10.82;;;;;;;12.89;74.40;99614.00;5050767;28;20395;-45
2023/12/13 06:43:11;;;;;;;22.80;9.82;;;;;;;12.94;74.36;99618.28;5052758;28;20033;-46
2023/12/13 06:45:36;;;;;;;21.70;10.23;;;;;;;12.97;74.28;99613.00;5052035;28;20029;-44
2023/12/13 06:48:02;;;;;;;28.33;9.93;;;;;;;12.98;74.15;99612.13;5052681;28;20064;-49
2023/12/13 06:50:28;;;;;;;26.58;10.07;;;;;;;13.04;74.07;99618.13;5051986;28;20608;-47
2023/12/13 06:52:54;;;;;;;22.85;10.20;;;;;;;13.05;73.97;99610.28;5052187;28;20033;-46
2023/12/13 06:55:19;;;;;;;21.67;9.63;;;;;;;12.96;74.33;99608.66;5052032;28;20041;-44
2023/12/13 06:57:45;;;;;;;28.40;10.57;;;;;;;12.99;74.09;99618.22;5051793;28;20033;-46
2023/12/13 07:00:11;;;;;;;25.90;9.93;;;;;;;13.01;74.32;99612.06;5052262;28;20395;-48
2023/12/13 07:02:36;;;;;;;23.23;10.02;;;;;;;12.98;74.27;99614.75;5051306;28;20530;-49
2023/12/13 07:05:02;;;;;;;25.75;10.55;;;;;;;13.02;74.28;99613.78;5052266;28;20071;-45
2023/12/13 07:07:27;;;;;;;23.42;9.50;;;;;;;13.06;74.23;99617.19;5051512;28;20033;-45
2023/12/13 07:09:53;;;;;;;26.05;9.77;;;;;;;13.09;74.40;99611.06;5052307;28;20033;-49
2023/12/13 07:12:20;;;;;;;22.48;9.70;;;;;;;13.11;73.93;99610.16;5050686;28;20033;-46
2023/12/13 07:14:45;;;;;;;22.70;9.43;;;;;;;13.10;74.05;99613.66;5051239;28;20123;-46
2023/12/13 07:17:11;;;;;;;19.27;9.32;;;;;;;13.09;74.03;99614.56;5051725;28;20136;-46
2023/12/13 07:19:36;;;;;;;27.17;9.27;;;;;;;13.12;74.25;99622.38;5051428;28;20071;-46
2023/12/13 07:22:01;;;;;;;21.55;9.70;;;;;;;13.12;73.94;99622.38;5051196;28;20045;-47
2023/12/13 07:24:27;;;;;;;22.88;9.68;;;;;;;12.89;74.32;99625.34;5051697;28;20144;-45
2023/12/13 07:26:52;;;;;;;25.70;9.80;;;;;;;13.09;74.20;99624.16;5051683;28;20091;-46
2023/12/13 07:29:17;;;;;;;23.13;8.98;;;;;;;13.06;74.17;99625.06;5051768;28;20033;-45
2023/12/13 07:31:43;;;;;;;29.38;10.00;;;;;;;13.08;74.32;99627.66;5050149;28;20403;-49
2023/12/13 07:34:08;;;;;;;20.25;9.88;;;;;;;13.10;74.37;99631.13;5051873;28;20037;-46
2023/12/13 07:36:34;;;;;;;21.95;9.55;;;;;;;13.20;73.90;99630.97;5050949;28;20041;-48
2023/12/13 07:39:00;;;;;;;23.85;10.20;;;;;;;13.19;74.08;99644.06;5051328;28;20043;-45
2023/12/13 07:41:25;;;;;;;21.40;9.70;;;;;;;13.19;74.04;99637.09;5050904;28;20033;-49
2023/12/13 07:43:52;;;;;;;31.73;10.65;;;;;;;13.17;73.89;99638.88;5051561;28;20037;-45
2023/12/13 07:46:17;;;;;;;26.63;10.40;;;;;;;13.17;74.10;99641.50;5051604;28;20029;-45
2023/12/13 07:48:42;;;;;;;19.73;9.35;;;;;;;13.20;74.03;99651.91;5050842;28;20052;-48
2023/12/13 07:51:08;;;;;;;23.77;10.48;;;;;;;13.23;73.86;99645.75;5051075;28;20391;-46
2023/12/13 07:53:33;;;;;;;28.02;9.82;;;;;;;13.22;73.97;99646.66;5050868;28;20049;-46
2023/12/13 07:55:58;;;;;;;22.48;9.57;;;;;;;13.20;74.08;99651.91;5051200;28;20037;-44
2023/12/13 07:58:24;;;;;;;24.80;9.57;;;;;;;13.26;73.83;99658.78;5050666;28;20071;-45
2023/12/13 08:00:49;;;;;;;21.58;10.02;;;;;;;13.20;74.05;99654.50;5050947;28;20044;-47
2023/12/13 08:03:14;;;;;;;25.92;10.55;;;;;;;13.24;74.09;99658.81;5051107;28;20040;-45
2023/12/13 08:05:40;;;;;;;22.48;10.65;;;;;;;13.18;74.27;99658.03;5050517;28;20041;-44
2023/12/13 08:08:05;;;;;;;20.15;10.43;;;;;;;13.23;74.23;99656.22;5051417;28;20033;-44
2023/12/13 08:10:30;;;;;;;20.23;10.05;;;;;;;13.20;74.27;99653.66;5050418;28;20033;-45
2023/12/13 08:12:56;;;;;;;21.90;9.80;;;;;;;13.27;74.19;99664.00;5051129;28;20033;-45
2023/12/13 08:15:21;;;;;;;26.67;10.18;;;;;;;13.32;74.22;99656.94;5051396;28;20037;-46
2023/12/13 08:17:46;;;;;;;23.40;10.93;;;;;;;13.31;74.14;99662.19;5051462;28;20043;-46
2023/12/13 08:20:12;;;;;;;23.88;10.00;;;;;;;13.28;74.35;99659.63;5051744;28;20075;-50
2023/12/13 08:22:37;;;;;;;25.88;10.32;;;;;;;13.34;74.34;99662.16;5051055;28;20044;-44
2023/12/13 08:25:03;;;;;;;24.17;9.75;;;;;;;13.37;74.30;99662.94;5051387;28;20476;-45
2023/12/13 08:27:29;;;;;;;23.80;9.77;;;;;;;13.28;74.85;99664.88;5051078;28;20033;-47
2023/12/13 08:29:54;;;;;;;22.60;10.20;;;;;;;13.38;74.54;99666.44;5050602;28;20106;-46
2023/12/13 08:32:19;;;;;;;22.13;9.68;;;;;;;13.30;74.61;99670.91;5050619;28;20106;-45
2023/12/13 08:34:45;;;;;;;25.30;9.82;;;;;;;13.42;74.35;99677.72;5050247;28;20490;-48
2023/12/13 08:37:11;;;;;;;24.40;10.23;;;;;;;13.44;74.38;99679.41;5050492;28;20115;-51
2023/12/13 08:39:36;;;;;;;25.15;10.40;;;;;;;13.42;74.54;99677.72;5050108;28;20045;-45
2023/12/13 08:42:03;;;;;;;22.83;9.60;;;;;;;13.52;74.35;99671.44;5050522;28;20411;-48
2023/12/13 08:44:29;;;;;;;21.27;9.52;;;;;;;13.46;74.32;99676.78;5048873;28;20068;-49
2023/12/13 08:46:55;;;;;;;24.65;10.35;;;;;;;13.50;74.24;99681.06;5050386;28;20123;-48
2023/12/13 08:49:20;;;;;;;26.98;10.30;;;;;;;13.40;74.16;99680.38;5049324;28;20037;-45
2023/12/13 08:51:46;;;;;;;23.70;9.82;;;;;;;13.54;74.27;99680.97;5049871;28;20047;-45
2023/12/13 08:54:12;;;;;;;23.58;10.27;;;;;;;13.58;74.06;99689.66;5049992;28;20044;-46
2023/12/13 08:56:37;;;;;;;28.20;10.32;;;;;;;13.58;74.22;99685.28;5049863;28;20036;-49
2023/12/13 08:59:03;;;;;;;29.92;10.93;;;;;;;13.57;74.23;99687.91;5050897;28;20526;-46
2023/12/13 09:01:28;;;;;;;24.70;9.73;;;;;;;13.68;74.21;99693.81;5050515;28;20238;-45
2023/12/13 09:03:53;;;;;;;21.60;9.85;;;;;;;13.79;73.81;99700.59;5050588;28;20057;-47
2023/12/13 09:06:19;;;;;;;24.13;10.40;;;;;;;13.81;73.88;99693.59;5051067;28;20036;-44
2023/12/13 09:08:44;;;;;;;29.73;11.35;;;;;;;13.80;74.08;99704.94;5049981;28;20033;-45
2023/12/13 09:11:11;;;;;;;23.95;10.70;;;;;;;13.89;73.60;99706.53;5050209;28;20041;-49
2023/12/13 09:13:36;;;;;;;25.60;10.20;;;;;;;13.90;73.64;99705.66;5049389;28;20043;-49
2023/12/13 09:16:02;;;;;;;25.25;10.32;;;;;;;13.92;73.68;99708.22;5049897;28;20507;-45
2023/12/13 09:18:27;;;;;;;23.95;11.05;;;;;;;13.90;73.58;99708.28;5050881;28;20040;-45
2023/12/13 09:20:52;;;;;;;26.83;11.20;;;;;;;13.86;73.58;99709.19;5050791;28;20403;-46
2023/12/13 09:23:24;;;;;;;32.00;11.40;;;;;;;13.94;73.67;99712.56;5050988;28;20033;-47
2023/12/13 09:25:50;;;;;;;27.20;10.27;;;;;;;14.15;73.14;99719.13;5049601;28;20033;-45
2023/12/13 09:28:16;;;;;;;29.73;11.00;;;;;;;14.15;72.95;99717.38;5049939;28;20047;-46
2023/12/13 09:30:42;;;;;;;28.30;10.55;;;;;;;13.95;72.83;99718.66;5048984;28;20399;-48
2023/12/13 09:33:07;;;;;;;26.88;10.23;;;;;;;14.10;73.01;99719.22;5049650;28;20110;-47
2023/12/13 09:35:32;;;;;;;26.27;10.00;;;;;;;14.15;72.84;99721.75;5049194;28;20040;-44
2023/12/13 09:37:58;;;;;;;23.08;10.48;;;;;;;14.27;72.55;99718.91;5049476;28;20100;-47
2023/12/13 09:40:23;;;;;;;22.40;9.80;;;;;;;14.25;72.67;99723.31;5049564;28;20040;-48
2023/12/13 09:42:49;;;;;;;27.95;10.35;;;;;;;14.18;72.76;99727.81;5049521;28;20033;-46
2023/12/13 09:45:21;;;;;;;23.70;9.75;;;;;;;14.31;72.49;99727.56;5049604;28;20034;-44
2023/12/13 09:47:49;;;;;;;27.23;10.35;;;;;;;14.42;72.25;99728.25;5048870;28;20036;-47
2023/12/13 09:50:15;;;;;;;19.25;9.57;;;;;;;14.49;72.14;99732.47;5049453;28;20068;-46
2023/12/13 09:52:41;;;;;;;21.40;9.80;;;;;;;14.42;71.84;99736.09;5047130;28;20061;-47
2023/12/13 09:55:08;;;;;;;26.25;9.65;;;;;;;14.20;72.02;99743.53;5052024;28;20116;-47
2023/12/13 09:57:33;;;;;;;21.05;9.40;;;;;;;14.28;71.79;99746.84;5051312;28;20037;-45
2023/12/13 09:59:59;;;;;;;22.88;10.02;;;;;;;14.43;71.60;99741.34;5053399;28;20060;-49
2023/12/13 10:02:26;;;;;;;20.70;9.38;;;;;;;14.46;71.63;99751.75;5052725;28;20037;-48
2023/12/13 10:04:52;;;;;;;27.10;9.73;;;;;;;14.30;71.22;99752.91;5053231;28;20037;-46
2023/12/13 10:07:18;;;;;;;23.70;10.38;;;;;;;14.42;70.98;99749.22;5053309;28;20041;-48
2023/12/13 10:09:44;;;;;;;26.83;10.63;;;;;;;14.46;70.95;99754.38;5052826;28;20037;-45
2023/12/13 10:12:12;;;;;;;26.23;10.43;;;;;;;14.37;71.16;99757.19;5052927;28;20041;-47
2023/12/13 10:14:38;;;;;;;22.45;10.13;;;;;;;14.49;70.79;99756.06;5052451;28;20510;-47
2023/12/13 10:17:04;;;;;;;22.67;10.13;;;;;;;14.58;70.72;99753.25;5053048;28;20049;-47
2023/12/13 10:19:30;;;;;;;24.92;10.38;;;;;;;14.60;70.40;99760.19;5052523;28;20095;-48
2023/12/13 10:21:55;;;;;;;23.67;10.13;;;;;;;14.71;70.14;99759.09;5053117;28;20044;-44
2023/12/13 10:24:21;;;;;;;25.20;10.35;;;;;;;14.13;70.08;99762.88;5053331;28;20037;-51
2023/12/13 10:26:46;;;;;;;26.75;11.38;;;;;;;14.32;70.65;99771.25;5052687;28;20044;-45
2023/12/13 10:29:12;;;;;;;28.85;11.25;;;;;;;14.39;70.67;99771.16;5052911;28;20507;-43
2023/12/13 10:31:37;;;;;;;24.17;11.50;;;;;;;14.30;70.27;99771.28;5052025;28;20036;-49
2023/12/13 10:34:03;;;;;;;23.55;10.90;;;;;;;14.47;69.80;99776.22;5051694;28;20041;-45
2023/12/13 10:36:29;;;;;;;29.42;11.10;;;;;;;14.35;69.98;99773.78;5052437;28;20075;-47
2023/12/13 10:38:56;;;;;;;24.92;10.70;;;;;;;14.45;69.74;99773.66;5051427;28;20037;-46
2023/12/13 10:41:25;;;;;;;24.52;11.20;;;;;;;14.46;69.71;99777.97;5052561;28;20033;-47
2023/12/13 10:43:54;;;;;;;28.45;11.20;;;;;;;14.50;69.97;99776.16;5052244;28;20438;-45
2023/12/13 10:46:22;;;;;;;24.67;10.85;;;;;;;14.58;69.84;99775.09;5052596;28;20033;-47
2023/12/13 10:48:48;;;;;;;29.10;10.68;;;;;;;14.60;69.90;99775.06;5052224;28;20055;-46
2023/12/13 10:51:15;;;;;;;26.98;11.75;;;;;;;14.36;69.75;99778.16;5052642;28;20037;-44
2023/12/13 10:53:41;;;;;;;28.02;11.55;;;;;;;14.35;69.82;99787.78;5051862;28;20490;-49
2023/12/13 10:56:08;;;;;;;30.83;12.25;;;;;;;14.54;69.81;99786.56;5052428;28;20033;-47
2023/12/13 10:58:34;;;;;;;28.75;11.88;;;;;;;14.54;69.46;99780.44;5052023;28;20072;-44
2023/12/13 11:01:01;;;;;;;29.02;12.63;;;;;;;14.58;69.70;99777.72;5053392;28;20493;-46
2023/12/13 11:03:47;;;;;;;27.83;12.43;;;;;;;14.67;69.78;99775.81;5052413;28;20041;-45
2023/12/13 11:06:14;;;;;;;26.95;12.35;;;;;;;14.44;70.17;99789.41;5051352;28;20048;-47
2023/12/13 11:08:43;;;;;;;34.65;12.68;;;;;;;14.70;69.33;99787.09;5051591;28;20091;-45
2023/12/13 11:11:11;;;;;;;31.90;13.07;;;;;;;14.61;69.40;99788.16;5052068;28;20446;-42
2023/12/13 11:13:49;;;;;;;29.83;13.25;;;;;;;14.60;69.16;99791.69;5051691;28;20036;-45
2023/12/13 11:16:20;;;;;;;32.75;13.15;;;;;;;14.60;69.21;99796.94;5052042;28;20040;-47